Terminal Aerodrome Forecast
Issued by NWS Louisville, KY

Home | Current Version | Previous Version | Text Only | Print | Product List | Glossary On
Versions: 1 2 3 4 5 6 7 8 9 10 11 12
000
FTUS43 KLMK 180500
TAFBWG
TAF
KBWG 180526Z 1806/1906 27008KT P6SM SCT045
     FM181800 25011KT P6SM SCT030
     FM190000 19003KT P6SM SKC=

USA.gov is the U.S. government's official web portal to all federal, state and local government web resources and services.